createdAt,value
2022-08-21T00:00:26.050Z,5.83
2022-08-21T00:02:57.213Z,5.93
2022-08-21T00:05:26.031Z,5.37
2022-08-21T00:07:55.878Z,4.93
2022-08-21T00:10:24.163Z,5.50
2022-08-21T00:12:52.420Z,4.80
2022-08-21T00:15:22.015Z,5.27
2022-08-21T00:17:55.122Z,5.27
2022-08-21T00:20:23.622Z,5.30
2022-08-21T00:22:52.683Z,5.37
2022-08-21T00:25:24.231Z,5.57
2022-08-21T00:27:55.060Z,5.17
2022-08-21T00:30:24.138Z,6.20
2022-08-21T00:32:52.469Z,5.50
2022-08-21T00:35:22.367Z,5.20
2022-08-21T00:37:52.893Z,5.33
2022-08-21T00:40:24.247Z,5.73
2022-08-21T00:42:53.769Z,5.53
2022-08-21T00:45:22.512Z,5.73
2022-08-21T00:47:51.120Z,5.23
2022-08-21T00:50:21.990Z,5.60
2022-08-21T00:52:51.258Z,5.70
2022-08-21T00:55:19.441Z,5.87
2022-08-21T00:57:51.552Z,5.40
2022-08-21T01:00:24.891Z,6.27
2022-08-21T01:02:53.213Z,6.17
2022-08-21T01:05:21.305Z,5.57
2022-08-21T01:07:49.557Z,5.30
2022-08-21T01:10:23.748Z,5.50
2022-08-21T01:12:54.210Z,5.27
2022-08-21T01:15:22.773Z,5.37
2022-08-21T01:17:51.518Z,5.57
2022-08-21T01:20:20.055Z,5.43
2022-08-21T01:22:49.658Z,5.37
2022-08-21T01:25:18.499Z,5.77
2022-08-21T01:27:47.851Z,5.67
2022-08-21T01:30:18.209Z,5.40
2022-08-21T01:32:46.705Z,5.27
2022-08-21T01:35:15.313Z,5.47
2022-08-21T01:37:43.705Z,6.17
2022-08-21T01:40:15.430Z,5.27
2022-08-21T01:42:43.725Z,6.17
2022-08-21T01:45:12.147Z,6.30
2022-08-21T01:47:40.752Z,5.23
2022-08-21T01:50:11.170Z,6.00
2022-08-21T01:52:39.263Z,6.27
2022-08-21T01:55:08.265Z,6.93
2022-08-21T01:57:40.830Z,7.73
2022-08-21T02:00:11.778Z,8.30
2022-08-21T02:02:39.964Z,7.43
2022-08-21T02:05:08.576Z,7.43
2022-08-21T02:07:39.126Z,9.00
2022-08-21T02:10:09.229Z,8.80
2022-08-21T02:12:37.351Z,8.07
2022-08-21T02:15:08.241Z,7.97
2022-08-21T02:17:42.207Z,8.10
2022-08-21T02:20:11.509Z,6.80
2022-08-21T02:22:39.621Z,6.60
2022-08-21T02:25:08.982Z,6.53
2022-08-21T02:27:41.439Z,6.47
2022-08-21T02:30:13.203Z,6.20
2022-08-21T02:32:41.637Z,5.83
2022-08-21T02:35:10.702Z,6.63
2022-08-21T02:37:46.209Z,6.57
2022-08-21T02:40:16.040Z,6.47
2022-08-21T02:42:44.983Z,5.87
2022-08-21T02:45:14.707Z,6.50
2022-08-21T02:47:43.224Z,6.47
2022-08-21T02:50:11.359Z,6.70
2022-08-21T02:52:39.671Z,6.23
2022-08-21T02:55:08.054Z,6.90
2022-08-21T02:57:37.023Z,7.33
2022-08-21T03:00:08.325Z,7.30
2022-08-21T03:02:38.075Z,6.93
2022-08-21T03:05:07.256Z,6.80
2022-08-21T03:07:35.566Z,7.00
2022-08-21T03:10:04.134Z,6.57
2022-08-21T03:12:32.347Z,6.70
2022-08-21T03:15:00.486Z,6.63
2022-08-21T03:17:29.709Z,7.03
2022-08-21T03:19:59.842Z,6.90
2022-08-21T03:22:28.071Z,7.27
2022-08-21T03:24:59.901Z,7.33
2022-08-21T03:27:29.770Z,7.17
2022-08-21T03:30:01.052Z,7.33
2022-08-21T03:32:30.173Z,6.90
2022-08-21T03:35:01.190Z,7.27
2022-08-21T03:37:29.472Z,7.10
2022-08-21T03:40:00.465Z,7.20
2022-08-21T03:42:28.705Z,7.33
2022-08-21T03:44:56.845Z,7.17
2022-08-21T03:47:25.117Z,7.13
2022-08-21T03:49:53.303Z,7.23
2022-08-21T03:52:24.543Z,6.40
2022-08-21T03:54:52.924Z,6.90
2022-08-21T03:57:21.406Z,6.00
2022-08-21T03:59:49.599Z,6.47
2022-08-21T04:02:19.247Z,7.03
2022-08-21T04:04:47.575Z,6.73
2022-08-21T04:07:15.759Z,6.33
2022-08-21T04:09:45.332Z,6.87
2022-08-21T04:12:13.491Z,5.63
2022-08-21T04:14:42.924Z,6.17
2022-08-21T04:17:11.328Z,6.53
2022-08-21T04:19:39.570Z,6.57
2022-08-21T04:22:07.898Z,6.30
2022-08-21T04:24:36.271Z,6.20
2022-08-21T04:27:08.659Z,5.53
2022-08-21T04:29:40.024Z,5.63
2022-08-21T04:32:08.571Z,5.70
2022-08-21T04:34:37.459Z,6.47
2022-08-21T04:37:06.414Z,5.80
2022-08-21T04:39:34.636Z,6.30
2022-08-21T04:42:02.842Z,6.50
2022-08-21T04:44:32.453Z,5.77
2022-08-21T04:47:00.700Z,5.83
2022-08-21T04:49:29.131Z,6.13
2022-08-21T04:51:57.449Z,5.60
2022-08-21T04:54:25.541Z,5.73
2022-08-21T04:56:54.876Z,5.43
2022-08-21T04:59:28.172Z,6.33
2022-08-21T05:01:58.103Z,6.00
2022-08-21T05:04:27.248Z,5.57
2022-08-21T05:06:55.909Z,5.73
2022-08-21T05:09:25.763Z,5.77
2022-08-21T05:11:53.901Z,5.93
2022-08-21T05:14:22.086Z,5.10
2022-08-21T05:16:50.527Z,5.40
2022-08-21T05:19:20.085Z,5.20
2022-08-21T05:21:51.220Z,5.20
2022-08-21T05:24:19.372Z,4.60
2022-08-21T05:26:48.182Z,5.23
2022-08-21T05:29:16.677Z,5.37
2022-08-21T05:31:46.451Z,5.47
2022-08-21T05:34:22.661Z,4.73
2022-08-21T05:36:50.981Z,4.40
2022-08-21T05:39:19.249Z,5.00
2022-08-21T05:41:48.759Z,4.73
2022-08-21T05:44:16.902Z,4.60
2022-08-21T05:46:45.134Z,6.20
2022-08-21T05:49:13.376Z,5.40
2022-08-21T05:51:43.558Z,4.90
2022-08-21T05:54:12.211Z,4.33
2022-08-21T05:56:49.949Z,4.97
2022-08-21T05:59:18.157Z,4.47
2022-08-21T06:01:46.497Z,4.70
2022-08-21T06:04:14.767Z,5.10
2022-08-21T06:06:44.337Z,4.33
2022-08-21T06:09:12.831Z,5.57
2022-08-21T06:11:41.215Z,5.80
2022-08-21T06:14:09.374Z,5.50
2022-08-21T06:16:37.750Z,6.80
2022-08-21T06:19:07.150Z,5.47
2022-08-21T06:21:35.302Z,5.10
2022-08-21T06:24:05.853Z,5.57
2022-08-21T06:26:34.307Z,5.07
2022-08-21T06:29:02.598Z,6.00
2022-08-21T06:31:33.718Z,5.27
2022-08-21T06:34:02.724Z,5.03
2022-08-21T06:36:30.903Z,6.47
2022-08-21T06:38:59.574Z,5.10
2022-08-21T06:41:30.769Z,6.20
2022-08-21T06:44:07.453Z,5.83
2022-08-21T06:46:35.668Z,5.43
2022-08-21T06:49:05.238Z,6.70
2022-08-21T06:51:36.092Z,5.87
2022-08-21T06:54:04.998Z,5.83
2022-08-21T06:56:37.953Z,6.10
2022-08-21T06:59:06.866Z,5.47
2022-08-21T07:01:37.860Z,7.13
2022-08-21T07:04:09.143Z,5.57
2022-08-21T07:06:37.508Z,6.30
2022-08-21T07:09:06.008Z,6.23
2022-08-21T07:11:42.359Z,5.83
2022-08-21T07:14:20.388Z,5.67
2022-08-21T07:16:49.721Z,5.63
2022-08-21T07:19:17.849Z,5.50
2022-08-21T07:21:49.032Z,5.60
2022-08-21T07:24:17.326Z,6.07
2022-08-21T07:26:46.906Z,4.83
2022-08-21T07:29:15.842Z,5.40
2022-08-21T07:31:43.968Z,4.97
2022-08-21T07:34:12.243Z,6.00
2022-08-21T07:36:40.485Z,5.10
2022-08-21T07:39:09.553Z,4.63
2022-08-21T07:41:38.653Z,4.97
2022-08-21T07:44:08.201Z,5.67
2022-08-21T07:46:36.516Z,5.50
2022-08-21T07:49:04.863Z,5.27
2022-08-21T07:51:34.625Z,5.27
2022-08-21T07:54:02.773Z,5.00
2022-08-21T07:56:32.865Z,4.63
2022-08-21T07:59:04.188Z,4.70
2022-08-21T08:01:34.136Z,4.70
2022-08-21T08:04:02.348Z,4.43
2022-08-21T08:06:30.567Z,5.00
2022-08-21T08:08:58.808Z,4.40
2022-08-21T08:11:30.027Z,5.03
2022-08-21T08:14:00.439Z,4.97
2022-08-21T08:16:28.614Z,5.00
2022-08-21T08:18:58.954Z,4.50
2022-08-21T08:21:27.716Z,4.57
2022-08-21T08:23:55.887Z,4.83
2022-08-21T08:26:23.971Z,4.07
2022-08-21T08:28:52.079Z,4.43
2022-08-21T08:31:20.269Z,4.90
2022-08-21T08:33:48.477Z,4.90
2022-08-21T08:36:19.181Z,4.67
2022-08-21T08:38:48.932Z,3.87
2022-08-21T08:41:24.030Z,3.80
2022-08-21T08:44:02.583Z,4.33
2022-08-21T08:46:34.675Z,4.27
2022-08-21T08:49:05.267Z,3.57
2022-08-21T08:51:39.597Z,3.30
2022-08-21T08:54:11.139Z,3.53
2022-08-21T08:56:39.753Z,3.53
2022-08-21T08:59:12.251Z,2.80
2022-08-21T09:01:43.382Z,3.53
2022-08-21T09:04:13.239Z,3.53
2022-08-21T09:06:58.981Z,4.17
2022-08-21T09:09:41.096Z,4.37
2022-08-21T09:12:14.548Z,4.83
2022-08-21T09:14:54.118Z,3.97
2022-08-21T09:17:35.211Z,4.33
2022-08-21T09:20:19.666Z,2.83
2022-08-21T09:22:59.489Z,3.70
2022-08-21T09:25:29.577Z,3.20
2022-08-21T09:28:00.682Z,4.47
2022-08-21T09:30:37.285Z,3.70
2022-08-21T09:33:10.074Z,2.77
2022-08-21T09:35:38.428Z,3.10
2022-08-21T09:38:09.108Z,2.50
2022-08-21T09:40:44.753Z,3.17
2022-08-21T09:43:19.330Z,2.80
2022-08-21T09:45:48.356Z,3.03
2022-08-21T09:48:20.543Z,2.90
2022-08-21T09:50:50.833Z,3.10
2022-08-21T09:53:21.685Z,2.80
2022-08-21T09:56:09.160Z,2.63
2022-08-21T09:58:38.258Z,2.30
2022-08-21T10:01:08.118Z,2.63
2022-08-21T10:03:36.933Z,2.50
2022-08-21T10:06:09.617Z,2.57
2022-08-21T10:08:45.565Z,2.53
2022-08-21T10:11:16.083Z,2.23
2022-08-21T10:13:50.883Z,1.87
2022-08-21T10:16:26.390Z,2.50
2022-08-21T10:19:04.229Z,1.97
2022-08-21T10:21:34.546Z,2.33
2022-08-21T10:24:08.489Z,2.07
2022-08-21T10:26:45.108Z,2.10
2022-08-21T10:29:18.251Z,1.80
2022-08-21T10:31:53.915Z,1.50
2022-08-21T10:34:41.647Z,2.50
2022-08-21T10:37:20.554Z,2.00
2022-08-21T10:39:55.003Z,3.23
2022-08-21T10:42:33.943Z,9.00
2022-08-21T10:45:13.509Z,2.73
2022-08-21T10:47:44.479Z,1.93
2022-08-21T10:50:19.032Z,1.70
2022-08-21T10:52:57.850Z,1.77
2022-08-21T10:55:33.172Z,1.70
2022-08-21T10:58:03.196Z,1.67
2022-08-21T11:00:41.193Z,2.23
2022-08-21T11:03:13.310Z,3.00
2022-08-21T11:05:48.815Z,2.30
2022-08-21T11:08:21.116Z,2.27
2022-08-21T11:10:59.549Z,2.57
2022-08-21T11:13:32.743Z,1.50
2022-08-21T11:16:07.771Z,2.33
2022-08-21T11:18:40.471Z,2.47
2022-08-21T11:21:17.706Z,1.90
2022-08-21T11:23:47.700Z,1.83
2022-08-21T11:26:21.991Z,2.07
2022-08-21T11:28:53.803Z,2.70
2022-08-21T11:31:33.663Z,3.77
2022-08-21T11:34:08.410Z,1.87
2022-08-21T11:36:44.065Z,1.90
2022-08-21T11:39:21.615Z,1.57
2022-08-21T11:41:56.478Z,1.63
2022-08-21T11:44:28.342Z,1.60
2022-08-21T11:47:02.200Z,1.80
2022-08-21T11:49:56.224Z,2.13
2022-08-21T11:52:26.325Z,1.57
2022-08-21T11:54:57.348Z,1.57
2022-08-21T11:57:33.061Z,2.20
2022-08-21T12:00:04.050Z,1.63
2022-08-21T12:02:34.034Z,1.57
2022-08-21T12:05:08.786Z,1.77
2022-08-21T12:07:39.884Z,1.40
2022-08-21T12:10:09.420Z,1.77
2022-08-21T12:12:40.180Z,1.97
2022-08-21T12:15:25.311Z,1.70
2022-08-21T12:17:56.924Z,1.97
2022-08-21T12:20:39.810Z,1.57
2022-08-21T12:23:21.155Z,2.00
2022-08-21T12:25:50.625Z,1.55
2022-08-21T12:28:25.064Z,1.80
2022-08-21T12:30:57.862Z,1.52
2022-08-21T12:33:28.115Z,1.53
2022-08-21T12:36:06.398Z,2.17
2022-08-21T12:38:36.098Z,1.77
2022-08-21T12:41:05.846Z,1.60
2022-08-21T12:43:40.986Z,1.60
2022-08-21T12:46:18.301Z,1.60
2022-08-21T12:48:49.248Z,2.00
2022-08-21T12:51:18.858Z,1.57
2022-08-21T12:53:47.996Z,1.97
2022-08-21T12:56:21.173Z,1.60
2022-08-21T12:58:52.700Z,1.80
2022-08-21T13:01:25.486Z,1.60
2022-08-21T13:03:58.146Z,1.60
2022-08-21T13:06:38.868Z,2.20
2022-08-21T13:09:08.427Z,1.60
2022-08-21T13:11:36.780Z,1.83
2022-08-21T13:14:13.918Z,1.88
2022-08-21T13:16:42.275Z,1.85
2022-08-21T13:19:13.976Z,1.60
2022-08-21T13:21:47.696Z,2.03
2022-08-21T13:27:17.465Z,1.85
2022-08-21T13:29:54.262Z,1.73
2022-08-21T13:32:25.480Z,1.58
2022-08-21T13:34:53.936Z,1.50
2022-08-21T13:37:22.743Z,1.60
2022-08-21T13:39:53.860Z,1.40
2022-08-21T13:42:25.123Z,1.60
2022-08-21T13:44:56.167Z,1.97
2022-08-21T13:47:27.727Z,1.90
2022-08-21T13:49:59.440Z,1.83
2022-08-21T13:52:28.414Z,1.50
2022-08-21T13:54:57.878Z,1.80
2022-08-21T13:57:30.866Z,2.10
2022-08-21T14:00:20.945Z,1.47
2022-08-21T14:02:52.726Z,1.50
2022-08-21T14:05:23.250Z,1.97
2022-08-21T14:07:52.562Z,1.67
2022-08-21T14:10:24.314Z,1.80
2022-08-21T14:12:55.780Z,1.70
2022-08-21T14:15:29.545Z,1.70
2022-08-21T14:17:59.456Z,1.73
2022-08-21T14:20:30.323Z,1.47
2022-08-21T14:22:58.667Z,2.03
2022-08-21T14:25:32.912Z,2.07
2022-08-21T14:28:09.589Z,1.97
2022-08-21T14:30:43.465Z,2.03
2022-08-21T14:33:13.064Z,1.57
2022-08-21T14:35:44.310Z,1.97
2022-08-21T14:38:20.293Z,1.53
2022-08-21T14:40:51.055Z,1.83
2022-08-21T14:43:20.107Z,1.90
2022-08-21T14:45:49.784Z,1.87
2022-08-21T14:48:18.041Z,1.83
2022-08-21T14:50:49.410Z,2.00
2022-08-21T14:53:17.799Z,1.70
2022-08-21T14:56:03.446Z,1.50
2022-08-21T14:58:31.915Z,1.60
2022-08-21T15:01:07.031Z,1.50
2022-08-21T15:03:35.479Z,1.73
2022-08-21T15:06:04.335Z,1.80
2022-08-21T15:08:33.218Z,2.10
2022-08-21T15:11:12.065Z,1.80
2022-08-21T15:13:42.224Z,1.47
2022-08-21T15:16:12.719Z,2.13
2022-08-21T15:18:41.215Z,2.17
2022-08-21T15:21:09.630Z,1.60
2022-08-21T15:23:39.840Z,2.10
2022-08-21T15:26:12.142Z,2.10
2022-08-21T15:28:40.811Z,2.47
2022-08-21T15:31:09.072Z,2.00
2022-08-21T15:33:38.780Z,1.63
2022-08-21T15:36:09.948Z,1.80
2022-08-21T15:38:38.387Z,1.37
2022-08-21T15:41:07.244Z,1.90
2022-08-21T15:43:39.486Z,1.90
2022-08-21T15:46:07.807Z,1.73
2022-08-21T15:48:36.251Z,2.47
2022-08-21T15:51:06.124Z,1.90
2022-08-21T15:53:39.557Z,2.20
2022-08-21T15:56:08.454Z,1.77
2022-08-21T15:58:36.889Z,2.37
2022-08-21T16:01:05.196Z,1.70
2022-08-21T16:03:34.397Z,1.83
2022-08-21T16:06:02.749Z,1.57
2022-08-21T16:08:32.481Z,1.70
2022-08-21T16:11:00.889Z,1.67
2022-08-21T16:13:30.358Z,2.17
2022-08-21T16:15:58.651Z,2.30
2022-08-21T16:18:27.707Z,1.73
2022-08-21T16:20:55.945Z,1.90
2022-08-21T16:23:24.279Z,2.00
2022-08-21T16:25:55.202Z,1.70
2022-08-21T16:28:24.915Z,2.07
2022-08-21T16:30:53.396Z,1.97
2022-08-21T16:33:26.500Z,2.63
2022-08-21T16:35:57.606Z,2.70
2022-08-21T16:38:25.781Z,2.40
2022-08-21T16:40:55.543Z,2.17
2022-08-21T16:43:24.192Z,1.70
2022-08-21T16:45:52.686Z,2.23
2022-08-21T16:48:21.295Z,1.77
2022-08-21T16:50:51.137Z,1.57
2022-08-21T16:53:20.034Z,1.43
2022-08-21T16:55:48.369Z,2.10
2022-08-21T16:58:22.429Z,1.67
2022-08-21T17:00:50.875Z,1.63
2022-08-21T17:03:21.550Z,1.73
2022-08-21T17:05:50.261Z,2.30
2022-08-21T17:08:18.760Z,1.90
2022-08-21T17:10:53.595Z,1.63
2022-08-21T17:13:23.276Z,2.20
2022-08-21T17:15:53.290Z,2.20
2022-08-21T17:18:23.339Z,1.80
2022-08-21T17:20:54.782Z,1.60
2022-08-21T17:23:23.199Z,1.70
2022-08-21T17:25:52.462Z,2.03
2022-08-21T17:28:24.421Z,1.70
2022-08-21T17:30:53.944Z,1.50
2022-08-21T17:33:25.901Z,1.73
2022-08-21T17:35:54.219Z,1.77
2022-08-21T17:38:22.485Z,1.53
2022-08-21T17:40:54.069Z,2.30
2022-08-21T17:43:23.865Z,2.20
2022-08-21T17:45:52.087Z,2.00
2022-08-21T17:48:25.371Z,1.60
2022-08-21T17:50:53.737Z,1.90
2022-08-21T17:53:22.167Z,1.83
2022-08-21T17:55:50.749Z,1.67
2022-08-21T17:58:19.024Z,1.73
2022-08-21T18:00:48.638Z,2.03
2022-08-21T18:03:22.678Z,1.73
2022-08-21T18:05:51.846Z,1.97
2022-08-21T18:08:20.352Z,1.80
2022-08-21T18:10:49.242Z,1.70
2022-08-21T18:13:18.634Z,1.53
2022-08-21T18:15:50.394Z,2.10
2022-08-21T18:18:18.777Z,2.20
2022-08-21T18:20:46.990Z,2.10
2022-08-21T18:23:15.435Z,2.10
2022-08-21T18:25:48.630Z,1.67
2022-08-21T18:28:17.243Z,1.90
2022-08-21T18:30:58.921Z,2.30
2022-08-21T18:33:28.608Z,1.80
2022-08-21T18:35:57.360Z,1.87
2022-08-21T18:38:27.934Z,1.87
2022-08-21T18:40:57.119Z,1.93
2022-08-21T18:43:25.316Z,1.50
2022-08-21T18:45:54.954Z,1.90
2022-08-21T18:48:26.902Z,2.20
2022-08-21T18:50:57.661Z,1.93
2022-08-21T18:53:29.563Z,2.50
2022-08-21T18:56:04.827Z,1.77
2022-08-21T18:58:35.663Z,1.80
2022-08-21T19:01:05.882Z,2.30
2022-08-21T19:03:39.788Z,1.97
2022-08-21T19:06:11.785Z,2.10
2022-08-21T19:08:41.102Z,2.27
2022-08-21T19:11:09.713Z,2.10
2022-08-21T19:13:39.240Z,1.80
2022-08-21T19:16:09.706Z,2.30
2022-08-21T19:18:41.736Z,2.47
2022-08-21T19:21:10.687Z,2.23
2022-08-21T19:23:42.453Z,2.17
2022-08-21T19:26:12.567Z,2.60
2022-08-21T19:28:42.160Z,1.97
2022-08-21T19:31:16.415Z,2.53
2022-08-21T19:33:50.795Z,2.40
2022-08-21T19:36:19.288Z,2.47
2022-08-21T19:38:47.582Z,2.10
2022-08-21T19:41:16.817Z,2.57
2022-08-21T19:43:50.652Z,2.40
2022-08-21T19:46:24.206Z,2.10
2022-08-21T19:48:53.567Z,2.83
2022-08-21T19:51:22.058Z,2.07
2022-08-21T19:53:55.830Z,2.47
2022-08-21T19:56:27.081Z,2.40
2022-08-21T19:58:55.337Z,2.00
2022-08-21T20:01:25.882Z,2.00
2022-08-21T20:03:54.765Z,2.00
2022-08-21T20:06:25.752Z,2.47
2022-08-21T20:08:54.946Z,1.90
2022-08-21T20:11:26.490Z,2.60
2022-08-21T20:13:54.906Z,1.93
2022-08-21T20:16:24.613Z,2.30
2022-08-21T20:18:55.960Z,2.20
2022-08-21T20:21:24.325Z,2.10
2022-08-21T20:23:52.732Z,2.90
2022-08-21T20:26:20.905Z,2.70
2022-08-21T20:28:50.533Z,2.53
2022-08-21T20:31:20.580Z,2.70
2022-08-21T20:33:50.492Z,2.60
2022-08-21T20:36:18.960Z,2.80
2022-08-21T20:38:48.177Z,3.20
2022-08-21T20:41:21.080Z,2.77
2022-08-21T20:43:58.434Z,2.87
2022-08-21T20:46:27.390Z,3.20
2022-08-21T20:48:58.775Z,2.53
2022-08-21T20:51:29.580Z,2.33
2022-08-21T20:54:02.099Z,2.80
2022-08-21T20:56:39.488Z,3.50
2022-08-21T20:59:18.249Z,3.00
2022-08-21T21:01:47.337Z,2.40
2022-08-21T21:04:25.198Z,2.37
2022-08-21T21:06:58.994Z,2.90
2022-08-21T21:09:33.568Z,2.70
2022-08-21T21:12:02.107Z,2.30
2022-08-21T21:14:33.965Z,2.13
2022-08-21T21:17:03.203Z,2.53
2022-08-21T21:19:38.932Z,2.47
2022-08-21T21:22:09.328Z,3.00
2022-08-21T21:24:38.897Z,2.43
2022-08-21T21:27:12.031Z,3.03
2022-08-21T21:29:43.055Z,2.60
2022-08-21T21:32:17.905Z,2.60
2022-08-21T21:34:51.073Z,2.93
2022-08-21T21:37:25.581Z,3.57
2022-08-21T21:39:56.970Z,3.33
2022-08-21T21:42:30.198Z,3.67
2022-08-21T21:45:14.531Z,3.10
2022-08-21T21:47:53.758Z,3.23
2022-08-21T21:50:31.733Z,2.90
2022-08-21T21:53:12.359Z,3.10
2022-08-21T21:55:54.232Z,3.43
2022-08-21T21:58:39.962Z,3.33
2022-08-21T22:01:13.842Z,2.53
2022-08-21T22:03:47.031Z,3.13
2022-08-21T22:06:18.785Z,3.10
2022-08-21T22:08:53.972Z,2.90
2022-08-21T22:11:29.389Z,2.97
2022-08-21T22:14:14.725Z,2.33
2022-08-21T22:16:43.443Z,3.10
2022-08-21T22:19:18.426Z,2.57
2022-08-21T22:21:50.743Z,2.60
2022-08-21T22:24:32.088Z,2.70
2022-08-21T22:27:04.422Z,2.83
2022-08-21T22:29:45.178Z,2.57
2022-08-21T22:32:13.440Z,2.57
2022-08-21T22:34:42.198Z,2.60
2022-08-21T22:37:14.008Z,2.33
2022-08-21T22:39:46.332Z,2.67
2022-08-21T22:42:15.625Z,2.17
2022-08-21T22:44:51.779Z,2.93
2022-08-21T22:47:33.657Z,2.60
2022-08-21T22:50:05.046Z,2.10
2022-08-21T22:52:35.758Z,2.40
2022-08-21T22:55:17.603Z,2.60
2022-08-21T22:57:47.772Z,2.30
2022-08-21T23:00:21.035Z,3.10
2022-08-21T23:02:58.050Z,2.20
2022-08-21T23:05:32.650Z,2.60
2022-08-21T23:08:24.295Z,2.30
2022-08-21T23:10:52.899Z,2.93
2022-08-21T23:13:21.305Z,2.60
2022-08-21T23:15:51.855Z,2.57
2022-08-21T23:18:25.581Z,2.80
2022-08-21T23:20:56.814Z,2.87
2022-08-21T23:23:28.435Z,3.07
2022-08-21T23:26:22.901Z,2.40
2022-08-21T23:29:07.799Z,1.90
2022-08-21T23:31:40.366Z,2.73
2022-08-21T23:34:15.974Z,2.67
2022-08-21T23:37:17.945Z,2.57
2022-08-21T23:40:03.049Z,2.80
2022-08-21T23:42:45.711Z,2.73
2022-08-21T23:45:24.331Z,3.87
2022-08-21T23:48:04.994Z,3.20
2022-08-21T23:50:36.181Z,4.13
2022-08-21T23:53:12.144Z,3.60
2022-08-21T23:55:58.015Z,4.07
2022-08-21T23:58:30.866Z,3.63
